sensor_id;sensor_type;location;lat;lon;timestamp;P1;durP1;ratioP1;P2;durP2;ratioP2
6117;SDS011;3089;48.202;11.510;2024-02-16T00:02:15;8.03;;;3.30;;
6117;SDS011;3089;48.202;11.510;2024-02-16T00:04:44;5.57;;;3.13;;
6117;SDS011;3089;48.202;11.510;2024-02-16T00:07:12;5.90;;;2.63;;
6117;SDS011;3089;48.202;11.510;2024-02-16T00:09:40;4.27;;;2.60;;
6117;SDS011;3089;48.202;11.510;2024-02-16T00:12:08;5.83;;;2.77;;
6117;SDS011;3089;48.202;11.510;2024-02-16T00:14:36;4.97;;;2.87;;
6117;SDS011;3089;48.202;11.510;2024-02-16T00:17:05;6.57;;;2.73;;
6117;SDS011;3089;48.202;11.510;2024-02-16T00:19:36;6.67;;;2.80;;
6117;SDS011;3089;48.202;11.510;2024-02-16T00:22:04;9.93;;;3.00;;
6117;SDS011;3089;48.202;11.510;2024-02-16T00:24:33;6.47;;;3.83;;
6117;SDS011;3089;48.202;11.510;2024-02-16T00:27:02;5.63;;;3.10;;
6117;SDS011;3089;48.202;11.510;2024-02-16T00:29:31;5.60;;;3.17;;
6117;SDS011;3089;48.202;11.510;2024-02-16T00:31:59;7.67;;;2.80;;
6117;SDS011;3089;48.202;11.510;2024-02-16T00:34:29;9.00;;;3.00;;
6117;SDS011;3089;48.202;11.510;2024-02-16T00:36:57;7.17;;;3.00;;
6117;SDS011;3089;48.202;11.510;2024-02-16T00:39:25;7.40;;;2.73;;
6117;SDS011;3089;48.202;11.510;2024-02-16T00:41:53;6.30;;;2.87;;
6117;SDS011;3089;48.202;11.510;2024-02-16T00:44:21;5.67;;;2.97;;
6117;SDS011;3089;48.202;11.510;2024-02-16T00:46:49;7.53;;;3.20;;
6117;SDS011;3089;48.202;11.510;2024-02-16T00:49:17;7.37;;;3.40;;
6117;SDS011;3089;48.202;11.510;2024-02-16T00:51:46;4.50;;;2.70;;
6117;SDS011;3089;48.202;11.510;2024-02-16T00:54:14;10.30;;;3.20;;
6117;SDS011;3089;48.202;11.510;2024-02-16T00:56:42;4.77;;;2.77;;
6117;SDS011;3089;48.202;11.510;2024-02-16T00:59:10;7.27;;;2.97;;
6117;SDS011;3089;48.202;11.510;2024-02-16T01:01:38;6.53;;;3.10;;
6117;SDS011;3089;48.202;11.510;2024-02-16T01:04:06;7.03;;;3.00;;
6117;SDS011;3089;48.202;11.510;2024-02-16T01:06:34;7.60;;;3.10;;
6117;SDS011;3089;48.202;11.510;2024-02-16T01:09:04;5.60;;;2.70;;
6117;SDS011;3089;48.202;11.510;2024-02-16T01:11:32;4.77;;;2.83;;
6117;SDS011;3089;48.202;11.510;2024-02-16T01:14:00;4.50;;;2.10;;
6117;SDS011;3089;48.202;11.510;2024-02-16T01:16:28;6.80;;;2.97;;
6117;SDS011;3089;48.202;11.510;2024-02-16T01:18:56;4.17;;;2.40;;
6117;SDS011;3089;48.202;11.510;2024-02-16T01:21:24;5.33;;;2.67;;
6117;SDS011;3089;48.202;11.510;2024-02-16T01:23:53;5.30;;;2.90;;
6117;SDS011;3089;48.202;11.510;2024-02-16T01:26:22;5.70;;;3.03;;
6117;SDS011;3089;48.202;11.510;2024-02-16T01:28:51;6.03;;;3.27;;
6117;SDS011;3089;48.202;11.510;2024-02-16T01:31:19;9.90;;;3.80;;
6117;SDS011;3089;48.202;11.510;2024-02-16T01:33:47;6.33;;;3.20;;
6117;SDS011;3089;48.202;11.510;2024-02-16T01:36:15;8.17;;;3.43;;
6117;SDS011;3089;48.202;11.510;2024-02-16T01:38:43;6.83;;;3.00;;
6117;SDS011;3089;48.202;11.510;2024-02-16T01:41:11;7.37;;;3.30;;
6117;SDS011;3089;48.202;11.510;2024-02-16T01:43:42;6.80;;;3.27;;
6117;SDS011;3089;48.202;11.510;2024-02-16T01:46:10;7.30;;;2.87;;
6117;SDS011;3089;48.202;11.510;2024-02-16T01:48:38;5.60;;;3.00;;
6117;SDS011;3089;48.202;11.510;2024-02-16T01:51:07;6.37;;;2.93;;
6117;SDS011;3089;48.202;11.510;2024-02-16T01:53:37;6.27;;;2.93;;
6117;SDS011;3089;48.202;11.510;2024-02-16T01:56:06;6.13;;;2.50;;
6117;SDS011;3089;48.202;11.510;2024-02-16T01:58:34;6.40;;;3.50;;
6117;SDS011;3089;48.202;11.510;2024-02-16T02:01:04;4.77;;;2.50;;
6117;SDS011;3089;48.202;11.510;2024-02-16T02:03:32;6.60;;;3.17;;
6117;SDS011;3089;48.202;11.510;2024-02-16T02:06:01;6.20;;;3.30;;
6117;SDS011;3089;48.202;11.510;2024-02-16T02:08:29;8.50;;;3.27;;
6117;SDS011;3089;48.202;11.510;2024-02-16T02:10:57;9.37;;;3.10;;
6117;SDS011;3089;48.202;11.510;2024-02-16T02:13:25;9.73;;;3.03;;
6117;SDS011;3089;48.202;11.510;2024-02-16T02:15:53;5.80;;;3.13;;
6117;SDS011;3089;48.202;11.510;2024-02-16T02:18:24;5.57;;;2.73;;
6117;SDS011;3089;48.202;11.510;2024-02-16T02:20:52;4.50;;;2.67;;
6117;SDS011;3089;48.202;11.510;2024-02-16T02:23:22;6.90;;;3.13;;
6117;SDS011;3089;48.202;11.510;2024-02-16T02:25:50;5.57;;;3.00;;
6117;SDS011;3089;48.202;11.510;2024-02-16T02:28:18;7.73;;;3.03;;
6117;SDS011;3089;48.202;11.510;2024-02-16T02:30:50;4.90;;;2.70;;
6117;SDS011;3089;48.202;11.510;2024-02-16T02:33:19;5.83;;;2.67;;
6117;SDS011;3089;48.202;11.510;2024-02-16T02:35:47;6.67;;;2.80;;
6117;SDS011;3089;48.202;11.510;2024-02-16T02:38:16;6.07;;;3.03;;
6117;SDS011;3089;48.202;11.510;2024-02-16T02:40:45;5.77;;;3.00;;
6117;SDS011;3089;48.202;11.510;2024-02-16T02:43:13;5.63;;;2.93;;
6117;SDS011;3089;48.202;11.510;2024-02-16T02:45:41;4.60;;;2.20;;
6117;SDS011;3089;48.202;11.510;2024-02-16T02:48:09;7.20;;;3.60;;
6117;SDS011;3089;48.202;11.510;2024-02-16T02:50:38;6.47;;;2.67;;
6117;SDS011;3089;48.202;11.510;2024-02-16T02:53:05;5.47;;;2.77;;
6117;SDS011;3089;48.202;11.510;2024-02-16T02:55:33;4.97;;;2.97;;
6117;SDS011;3089;48.202;11.510;2024-02-16T02:58:03;8.17;;;3.17;;
6117;SDS011;3089;48.202;11.510;2024-02-16T03:00:31;4.87;;;2.70;;
6117;SDS011;3089;48.202;11.510;2024-02-16T03:02:59;6.50;;;3.97;;
6117;SDS011;3089;48.202;11.510;2024-02-16T03:05:28;7.87;;;3.90;;
6117;SDS011;3089;48.202;11.510;2024-02-16T03:07:55;6.33;;;2.70;;
6117;SDS011;3089;48.202;11.510;2024-02-16T03:10:25;7.40;;;3.37;;
6117;SDS011;3089;48.202;11.510;2024-02-16T03:12:53;5.40;;;2.87;;
6117;SDS011;3089;48.202;11.510;2024-02-16T03:15:22;8.07;;;3.03;;
6117;SDS011;3089;48.202;11.510;2024-02-16T03:17:50;6.80;;;3.40;;
6117;SDS011;3089;48.202;11.510;2024-02-16T03:20:18;7.30;;;3.70;;
6117;SDS011;3089;48.202;11.510;2024-02-16T03:22:48;6.03;;;3.60;;
6117;SDS011;3089;48.202;11.510;2024-02-16T03:25:16;6.60;;;3.53;;
6117;SDS011;3089;48.202;11.510;2024-02-16T03:27:44;7.60;;;2.93;;
6117;SDS011;3089;48.202;11.510;2024-02-16T03:30:12;7.87;;;3.40;;
6117;SDS011;3089;48.202;11.510;2024-02-16T03:32:42;5.60;;;3.40;;
6117;SDS011;3089;48.202;11.510;2024-02-16T03:35:10;7.60;;;3.60;;
6117;SDS011;3089;48.202;11.510;2024-02-16T03:37:38;7.50;;;3.33;;
6117;SDS011;3089;48.202;11.510;2024-02-16T03:40:06;7.27;;;3.80;;
6117;SDS011;3089;48.202;11.510;2024-02-16T03:42:36;6.77;;;3.20;;
6117;SDS011;3089;48.202;11.510;2024-02-16T03:45:04;10.87;;;3.40;;
6117;SDS011;3089;48.202;11.510;2024-02-16T03:47:33;5.90;;;3.40;;
6117;SDS011;3089;48.202;11.510;2024-02-16T03:50:02;5.93;;;3.03;;
6117;SDS011;3089;48.202;11.510;2024-02-16T03:52:31;5.57;;;3.10;;
6117;SDS011;3089;48.202;11.510;2024-02-16T03:54:59;11.70;;;3.63;;
6117;SDS011;3089;48.202;11.510;2024-02-16T03:57:27;5.00;;;2.80;;
6117;SDS011;3089;48.202;11.510;2024-02-16T03:59:55;6.20;;;3.00;;
6117;SDS011;3089;48.202;11.510;2024-02-16T04:02:23;6.93;;;3.53;;
6117;SDS011;3089;48.202;11.510;2024-02-16T04:04:51;9.43;;;3.30;;
6117;SDS011;3089;48.202;11.510;2024-02-16T04:07:20;6.60;;;3.40;;
6117;SDS011;3089;48.202;11.510;2024-02-16T04:09:48;8.50;;;3.37;;
6117;SDS011;3089;48.202;11.510;2024-02-16T04:12:16;5.83;;;3.80;;
6117;SDS011;3089;48.202;11.510;2024-02-16T04:14:44;11.50;;;3.90;;
6117;SDS011;3089;48.202;11.510;2024-02-16T04:17:12;7.40;;;2.90;;
6117;SDS011;3089;48.202;11.510;2024-02-16T04:19:40;5.80;;;3.37;;
6117;SDS011;3089;48.202;11.510;2024-02-16T04:22:08;7.87;;;3.80;;
6117;SDS011;3089;48.202;11.510;2024-02-16T04:24:37;7.90;;;4.00;;
6117;SDS011;3089;48.202;11.510;2024-02-16T04:27:05;9.17;;;3.93;;
6117;SDS011;3089;48.202;11.510;2024-02-16T04:29:34;7.60;;;4.37;;
6117;SDS011;3089;48.202;11.510;2024-02-16T04:32:03;7.70;;;3.87;;
6117;SDS011;3089;48.202;11.510;2024-02-16T04:34:31;6.10;;;3.13;;
6117;SDS011;3089;48.202;11.510;2024-02-16T04:36:59;9.70;;;3.90;;
6117;SDS011;3089;48.202;11.510;2024-02-16T04:39:27;9.07;;;3.47;;
6117;SDS011;3089;48.202;11.510;2024-02-16T04:41:57;11.77;;;4.77;;
6117;SDS011;3089;48.202;11.510;2024-02-16T04:44:25;8.13;;;3.57;;
6117;SDS011;3089;48.202;11.510;2024-02-16T04:46:53;7.37;;;3.10;;
6117;SDS011;3089;48.202;11.510;2024-02-16T04:49:21;7.73;;;3.57;;
6117;SDS011;3089;48.202;11.510;2024-02-16T04:51:50;7.03;;;3.40;;
6117;SDS011;3089;48.202;11.510;2024-02-16T04:54:18;5.13;;;2.90;;
6117;SDS011;3089;48.202;11.510;2024-02-16T04:56:46;6.97;;;3.40;;
6117;SDS011;3089;48.202;11.510;2024-02-16T04:59:15;8.30;;;3.43;;
6117;SDS011;3089;48.202;11.510;2024-02-16T05:01:44;5.70;;;3.20;;
6117;SDS011;3089;48.202;11.510;2024-02-16T05:04:12;6.00;;;3.40;;
6117;SDS011;3089;48.202;11.510;2024-02-16T05:06:43;8.03;;;3.60;;
6117;SDS011;3089;48.202;11.510;2024-02-16T05:09:13;6.57;;;2.80;;
6117;SDS011;3089;48.202;11.510;2024-02-16T05:11:43;5.67;;;3.10;;
6117;SDS011;3089;48.202;11.510;2024-02-16T05:14:11;8.20;;;3.37;;
6117;SDS011;3089;48.202;11.510;2024-02-16T05:16:43;8.90;;;3.27;;
6117;SDS011;3089;48.202;11.510;2024-02-16T05:19:11;9.80;;;3.03;;
6117;SDS011;3089;48.202;11.510;2024-02-16T05:21:40;7.37;;;3.27;;
6117;SDS011;3089;48.202;11.510;2024-02-16T05:24:07;7.63;;;3.27;;
6117;SDS011;3089;48.202;11.510;2024-02-16T05:26:36;10.53;;;4.30;;
6117;SDS011;3089;48.202;11.510;2024-02-16T05:29:04;6.70;;;3.60;;
6117;SDS011;3089;48.202;11.510;2024-02-16T05:31:32;9.20;;;3.70;;
6117;SDS011;3089;48.202;11.510;2024-02-16T05:34:01;7.90;;;3.10;;
6117;SDS011;3089;48.202;11.510;2024-02-16T05:36:28;5.93;;;3.00;;
6117;SDS011;3089;48.202;11.510;2024-02-16T05:39:01;7.97;;;3.93;;
6117;SDS011;3089;48.202;11.510;2024-02-16T05:41:46;6.50;;;2.97;;
6117;SDS011;3089;48.202;11.510;2024-02-16T05:44:14;9.00;;;3.33;;
6117;SDS011;3089;48.202;11.510;2024-02-16T05:46:43;8.77;;;3.30;;
6117;SDS011;3089;48.202;11.510;2024-02-16T05:49:13;10.10;;;3.57;;
6117;SDS011;3089;48.202;11.510;2024-02-16T05:51:41;5.90;;;3.27;;
6117;SDS011;3089;48.202;11.510;2024-02-16T05:54:26;6.70;;;2.80;;
6117;SDS011;3089;48.202;11.510;2024-02-16T05:56:54;8.70;;;3.27;;
6117;SDS011;3089;48.202;11.510;2024-02-16T05:59:22;6.67;;;2.73;;
6117;SDS011;3089;48.202;11.510;2024-02-16T06:01:51;6.63;;;3.47;;
6117;SDS011;3089;48.202;11.510;2024-02-16T06:04:20;12.93;;;4.33;;
6117;SDS011;3089;48.202;11.510;2024-02-16T06:06:48;5.73;;;3.37;;
6117;SDS011;3089;48.202;11.510;2024-02-16T06:09:16;9.40;;;3.50;;
6117;SDS011;3089;48.202;11.510;2024-02-16T06:11:44;7.90;;;3.30;;
6117;SDS011;3089;48.202;11.510;2024-02-16T06:14:12;7.90;;;3.70;;
6117;SDS011;3089;48.202;11.510;2024-02-16T06:16:44;5.93;;;2.93;;
6117;SDS011;3089;48.202;11.510;2024-02-16T06:19:13;7.77;;;2.90;;
6117;SDS011;3089;48.202;11.510;2024-02-16T06:21:43;5.80;;;2.97;;
6117;SDS011;3089;48.202;11.510;2024-02-16T06:24:11;5.47;;;3.33;;
6117;SDS011;3089;48.202;11.510;2024-02-16T06:26:39;6.30;;;3.00;;
6117;SDS011;3089;48.202;11.510;2024-02-16T06:29:07;5.60;;;2.80;;
6117;SDS011;3089;48.202;11.510;2024-02-16T06:31:35;7.80;;;3.87;;
6117;SDS011;3089;48.202;11.510;2024-02-16T06:34:02;8.60;;;3.60;;
6117;SDS011;3089;48.202;11.510;2024-02-16T06:36:31;7.03;;;3.57;;
6117;SDS011;3089;48.202;11.510;2024-02-16T06:39:00;9.10;;;2.70;;
6117;SDS011;3089;48.202;11.510;2024-02-16T06:41:29;6.00;;;3.40;;
6117;SDS011;3089;48.202;11.510;2024-02-16T06:43:57;5.67;;;3.47;;
6117;SDS011;3089;48.202;11.510;2024-02-16T06:46:25;7.50;;;3.50;;
6117;SDS011;3089;48.202;11.510;2024-02-16T06:48:53;8.30;;;3.40;;
6117;SDS011;3089;48.202;11.510;2024-02-16T06:51:22;9.03;;;3.70;;
6117;SDS011;3089;48.202;11.510;2024-02-16T06:53:50;9.40;;;4.07;;
6117;SDS011;3089;48.202;11.510;2024-02-16T06:56:20;7.00;;;3.40;;
6117;SDS011;3089;48.202;11.510;2024-02-16T06:58:48;9.30;;;3.40;;
6117;SDS011;3089;48.202;11.510;2024-02-16T07:01:16;10.20;;;4.00;;
6117;SDS011;3089;48.202;11.510;2024-02-16T07:03:44;6.60;;;3.20;;
6117;SDS011;3089;48.202;11.510;2024-02-16T07:06:12;10.93;;;3.43;;
6117;SDS011;3089;48.202;11.510;2024-02-16T07:08:41;6.03;;;3.30;;
6117;SDS011;3089;48.202;11.510;2024-02-16T07:11:09;8.37;;;3.80;;
6117;SDS011;3089;48.202;11.510;2024-02-16T07:13:40;11.93;;;4.03;;
6117;SDS011;3089;48.202;11.510;2024-02-16T07:16:09;9.63;;;3.00;;
6117;SDS011;3089;48.202;11.510;2024-02-16T07:18:37;9.67;;;3.50;;
6117;SDS011;3089;48.202;11.510;2024-02-16T07:21:05;7.37;;;3.80;;
6117;SDS011;3089;48.202;11.510;2024-02-16T07:23:35;9.30;;;3.47;;
6117;SDS011;3089;48.202;11.510;2024-02-16T07:26:03;8.60;;;3.00;;
6117;SDS011;3089;48.202;11.510;2024-02-16T07:28:33;8.33;;;3.50;;
6117;SDS011;3089;48.202;11.510;2024-02-16T07:31:03;9.03;;;3.43;;
6117;SDS011;3089;48.202;11.510;2024-02-16T07:33:31;6.83;;;3.50;;
6117;SDS011;3089;48.202;11.510;2024-02-16T07:35:59;8.27;;;3.60;;
6117;SDS011;3089;48.202;11.510;2024-02-16T07:38:27;9.23;;;3.17;;
6117;SDS011;3089;48.202;11.510;2024-02-16T07:40:55;7.80;;;2.90;;
6117;SDS011;3089;48.202;11.510;2024-02-16T07:43:23;7.00;;;2.57;;
6117;SDS011;3089;48.202;11.510;2024-02-16T07:45:51;9.00;;;3.10;;
6117;SDS011;3089;48.202;11.510;2024-02-16T07:48:21;6.10;;;3.30;;
6117;SDS011;3089;48.202;11.510;2024-02-16T07:50:49;13.00;;;3.20;;
6117;SDS011;3089;48.202;11.510;2024-02-16T07:53:17;12.33;;;3.50;;
6117;SDS011;3089;48.202;11.510;2024-02-16T07:55:45;12.37;;;3.60;;
6117;SDS011;3089;48.202;11.510;2024-02-16T07:58:13;7.90;;;2.93;;
6117;SDS011;3089;48.202;11.510;2024-02-16T08:00:41;8.27;;;3.00;;
6117;SDS011;3089;48.202;11.510;2024-02-16T08:03:09;8.80;;;3.47;;
6117;SDS011;3089;48.202;11.510;2024-02-16T08:05:39;8.63;;;3.40;;
6117;SDS011;3089;48.202;11.510;2024-02-16T08:08:07;5.57;;;3.03;;
6117;SDS011;3089;48.202;11.510;2024-02-16T08:10:34;21.73;;;3.83;;
6117;SDS011;3089;48.202;11.510;2024-02-16T08:13:03;6.13;;;3.10;;
6117;SDS011;3089;48.202;11.510;2024-02-16T08:15:31;7.53;;;3.40;;
6117;SDS011;3089;48.202;11.510;2024-02-16T08:17:59;7.13;;;3.30;;
6117;SDS011;3089;48.202;11.510;2024-02-16T08:20:27;6.43;;;3.27;;
6117;SDS011;3089;48.202;11.510;2024-02-16T08:22:56;12.13;;;4.33;;
6117;SDS011;3089;48.202;11.510;2024-02-16T08:25:25;8.27;;;3.50;;
6117;SDS011;3089;48.202;11.510;2024-02-16T08:27:54;15.83;;;3.60;;
6117;SDS011;3089;48.202;11.510;2024-02-16T08:30:22;11.97;;;3.83;;
6117;SDS011;3089;48.202;11.510;2024-02-16T08:32:51;29.97;;;4.90;;
6117;SDS011;3089;48.202;11.510;2024-02-16T08:35:20;10.63;;;4.00;;
6117;SDS011;3089;48.202;11.510;2024-02-16T08:37:48;14.07;;;3.20;;
6117;SDS011;3089;48.202;11.510;2024-02-16T08:40:18;12.90;;;3.00;;
6117;SDS011;3089;48.202;11.510;2024-02-16T08:42:45;8.73;;;2.43;;
6117;SDS011;3089;48.202;11.510;2024-02-16T08:45:14;9.47;;;2.50;;
6117;SDS011;3089;48.202;11.510;2024-02-16T08:47:43;24.33;;;3.17;;
6117;SDS011;3089;48.202;11.510;2024-02-16T08:50:15;7.10;;;3.40;;
6117;SDS011;3089;48.202;11.510;2024-02-16T08:52:43;8.67;;;2.87;;
6117;SDS011;3089;48.202;11.510;2024-02-16T08:55:11;13.03;;;2.60;;
6117;SDS011;3089;48.202;11.510;2024-02-16T08:57:41;6.83;;;2.33;;
6117;SDS011;3089;48.202;11.510;2024-02-16T09:00:10;10.17;;;2.60;;
6117;SDS011;3089;48.202;11.510;2024-02-16T09:02:39;8.60;;;2.20;;
6117;SDS011;3089;48.202;11.510;2024-02-16T09:05:07;5.63;;;2.00;;
6117;SDS011;3089;48.202;11.510;2024-02-16T09:07:36;6.27;;;2.30;;
6117;SDS011;3089;48.202;11.510;2024-02-16T09:10:05;5.97;;;2.33;;
6117;SDS011;3089;48.202;11.510;2024-02-16T09:12:34;7.63;;;1.87;;
6117;SDS011;3089;48.202;11.510;2024-02-16T09:15:03;22.20;;;2.17;;
6117;SDS011;3089;48.202;11.510;2024-02-16T09:17:32;7.13;;;2.47;;
6117;SDS011;3089;48.202;11.510;2024-02-16T09:20:00;4.77;;;1.60;;
6117;SDS011;3089;48.202;11.510;2024-02-16T09:22:30;23.93;;;2.30;;
6117;SDS011;3089;48.202;11.510;2024-02-16T09:25:01;13.00;;;2.73;;
6117;SDS011;3089;48.202;11.510;2024-02-16T09:27:29;5.33;;;2.00;;
6117;SDS011;3089;48.202;11.510;2024-02-16T09:29:57;14.50;;;1.90;;
6117;SDS011;3089;48.202;11.510;2024-02-16T09:32:27;5.63;;;1.80;;
6117;SDS011;3089;48.202;11.510;2024-02-16T09:34:55;9.03;;;2.07;;
6117;SDS011;3089;48.202;11.510;2024-02-16T09:37:23;5.23;;;1.80;;
6117;SDS011;3089;48.202;11.510;2024-02-16T09:39:51;6.10;;;1.70;;
6117;SDS011;3089;48.202;11.510;2024-02-16T09:42:21;6.03;;;1.70;;
6117;SDS011;3089;48.202;11.510;2024-02-16T09:44:52;5.70;;;2.00;;
6117;SDS011;3089;48.202;11.510;2024-02-16T09:47:22;6.40;;;1.73;;
6117;SDS011;3089;48.202;11.510;2024-02-16T09:49:56;5.13;;;1.53;;
6117;SDS011;3089;48.202;11.510;2024-02-16T09:52:24;7.10;;;1.37;;
6117;SDS011;3089;48.202;11.510;2024-02-16T09:54:52;7.80;;;1.60;;
6117;SDS011;3089;48.202;11.510;2024-02-16T09:57:21;5.47;;;1.50;;
6117;SDS011;3089;48.202;11.510;2024-02-16T09:59:49;4.87;;;1.50;;
6117;SDS011;3089;48.202;11.510;2024-02-16T10:02:17;3.90;;;1.50;;
6117;SDS011;3089;48.202;11.510;2024-02-16T10:04:45;3.43;;;1.37;;
6117;SDS011;3089;48.202;11.510;2024-02-16T10:07:14;3.60;;;1.40;;
6117;SDS011;3089;48.202;11.510;2024-02-16T10:09:43;6.60;;;1.40;;
6117;SDS011;3089;48.202;11.510;2024-02-16T10:12:10;7.53;;;1.47;;
6117;SDS011;3089;48.202;11.510;2024-02-16T10:14:53;15.10;;;1.97;;
6117;SDS011;3089;48.202;11.510;2024-02-16T10:17:22;4.00;;;1.20;;
6117;SDS011;3089;48.202;11.510;2024-02-16T10:19:55;7.73;;;1.40;;
6117;SDS011;3089;48.202;11.510;2024-02-16T10:22:25;12.70;;;1.37;;
6117;SDS011;3089;48.202;11.510;2024-02-16T10:24:53;5.17;;;1.13;;
6117;SDS011;3089;48.202;11.510;2024-02-16T10:27:20;7.40;;;2.00;;
6117;SDS011;3089;48.202;11.510;2024-02-16T10:29:49;3.97;;;1.13;;
6117;SDS011;3089;48.202;11.510;2024-02-16T10:32:21;2.60;;;0.97;;
6117;SDS011;3089;48.202;11.510;2024-02-16T10:34:50;3.70;;;1.10;;
6117;SDS011;3089;48.202;11.510;2024-02-16T10:37:21;4.10;;;1.20;;
6117;SDS011;3089;48.202;11.510;2024-02-16T10:39:51;3.47;;;1.30;;
6117;SDS011;3089;48.202;11.510;2024-02-16T10:42:23;9.47;;;1.43;;
6117;SDS011;3089;48.202;11.510;2024-02-16T10:44:54;6.63;;;1.50;;
6117;SDS011;3089;48.202;11.510;2024-02-16T10:47:22;2.87;;;1.10;;
6117;SDS011;3089;48.202;11.510;2024-02-16T10:49:50;3.57;;;1.20;;
6117;SDS011;3089;48.202;11.510;2024-02-16T10:52:19;3.50;;;1.20;;
6117;SDS011;3089;48.202;11.510;2024-02-16T10:54:48;4.37;;;1.17;;
6117;SDS011;3089;48.202;11.510;2024-02-16T10:57:18;3.30;;;1.10;;
6117;SDS011;3089;48.202;11.510;2024-02-16T10:59:47;4.00;;;1.37;;
6117;SDS011;3089;48.202;11.510;2024-02-16T11:02:17;3.63;;;1.30;;
6117;SDS011;3089;48.202;11.510;2024-02-16T11:04:46;5.50;;;1.33;;
6117;SDS011;3089;48.202;11.510;2024-02-16T11:07:15;4.37;;;1.50;;
6117;SDS011;3089;48.202;11.510;2024-02-16T11:09:46;5.33;;;1.33;;
6117;SDS011;3089;48.202;11.510;2024-02-16T11:12:16;3.13;;;1.13;;
6117;SDS011;3089;48.202;11.510;2024-02-16T11:14:45;4.50;;;1.50;;
6117;SDS011;3089;48.202;11.510;2024-02-16T11:17:15;4.40;;;1.50;;
6117;SDS011;3089;48.202;11.510;2024-02-16T11:19:47;4.50;;;1.67;;
6117;SDS011;3089;48.202;11.510;2024-02-16T11:22:17;5.03;;;1.37;;
6117;SDS011;3089;48.202;11.510;2024-02-16T11:24:47;6.50;;;1.63;;
6117;SDS011;3089;48.202;11.510;2024-02-16T11:27:18;3.40;;;1.10;;
6117;SDS011;3089;48.202;11.510;2024-02-16T11:29:48;5.30;;;1.60;;
6117;SDS011;3089;48.202;11.510;2024-02-16T11:32:18;5.43;;;1.10;;
6117;SDS011;3089;48.202;11.510;2024-02-16T11:34:46;2.67;;;1.10;;
6117;SDS011;3089;48.202;11.510;2024-02-16T11:37:15;3.70;;;1.53;;
6117;SDS011;3089;48.202;11.510;2024-02-16T11:39:43;5.87;;;1.57;;
6117;SDS011;3089;48.202;11.510;2024-02-16T11:42:13;6.87;;;1.40;;
6117;SDS011;3089;48.202;11.510;2024-02-16T11:44:51;3.63;;;1.33;;
6117;SDS011;3089;48.202;11.510;2024-02-16T11:47:22;3.90;;;1.40;;
6117;SDS011;3089;48.202;11.510;2024-02-16T11:50:00;5.30;;;1.47;;
6117;SDS011;3089;48.202;11.510;2024-02-16T11:52:29;4.03;;;1.20;;
6117;SDS011;3089;48.202;11.510;2024-02-16T11:54:57;3.30;;;1.27;;
6117;SDS011;3089;48.202;11.510;2024-02-16T11:57:29;6.13;;;2.03;;
6117;SDS011;3089;48.202;11.510;2024-02-16T11:59:58;3.43;;;1.40;;
6117;SDS011;3089;48.202;11.510;2024-02-16T12:02:26;5.33;;;1.03;;
6117;SDS011;3089;48.202;11.510;2024-02-16T12:04:57;4.80;;;1.47;;
6117;SDS011;3089;48.202;11.510;2024-02-16T12:07:30;4.33;;;1.70;;
6117;SDS011;3089;48.202;11.510;2024-02-16T12:09:59;4.13;;;1.50;;
6117;SDS011;3089;48.202;11.510;2024-02-16T12:12:30;5.33;;;1.60;;
6117;SDS011;3089;48.202;11.510;2024-02-16T12:14:59;3.30;;;0.97;;
6117;SDS011;3089;48.202;11.510;2024-02-16T12:17:28;5.67;;;1.20;;
6117;SDS011;3089;48.202;11.510;2024-02-16T12:19:56;4.63;;;1.20;;
6117;SDS011;3089;48.202;11.510;2024-02-16T12:22:24;3.10;;;1.17;;
6117;SDS011;3089;48.202;11.510;2024-02-16T12:24:52;4.87;;;1.33;;
6117;SDS011;3089;48.202;11.510;2024-02-16T12:27:20;3.83;;;1.20;;
6117;SDS011;3089;48.202;11.510;2024-02-16T12:29:49;3.20;;;1.43;;
6117;SDS011;3089;48.202;11.510;2024-02-16T12:32:19;4.63;;;1.57;;
6117;SDS011;3089;48.202;11.510;2024-02-16T12:34:47;3.87;;;1.60;;
6117;SDS011;3089;48.202;11.510;2024-02-16T12:37:15;5.63;;;1.50;;
6117;SDS011;3089;48.202;11.510;2024-02-16T12:39:44;4.80;;;1.40;;
6117;SDS011;3089;48.202;11.510;2024-02-16T12:42:14;4.83;;;1.50;;
6117;SDS011;3089;48.202;11.510;2024-02-16T12:44:42;4.00;;;1.70;;
6117;SDS011;3089;48.202;11.510;2024-02-16T12:47:11;5.17;;;1.47;;
6117;SDS011;3089;48.202;11.510;2024-02-16T12:49:41;4.47;;;1.63;;
6117;SDS011;3089;48.202;11.510;2024-02-16T12:52:09;3.07;;;1.23;;
6117;SDS011;3089;48.202;11.510;2024-02-16T12:54:38;7.50;;;1.80;;
6117;SDS011;3089;48.202;11.510;2024-02-16T12:57:11;5.63;;;1.63;;
6117;SDS011;3089;48.202;11.510;2024-02-16T12:59:40;6.20;;;2.00;;
6117;SDS011;3089;48.202;11.510;2024-02-16T13:02:08;4.90;;;1.90;;
6117;SDS011;3089;48.202;11.510;2024-02-16T13:04:38;3.90;;;1.30;;
6117;SDS011;3089;48.202;11.510;2024-02-16T13:07:06;4.47;;;1.60;;
6117;SDS011;3089;48.202;11.510;2024-02-16T13:09:35;3.30;;;1.33;;
6117;SDS011;3089;48.202;11.510;2024-02-16T13:12:03;7.93;;;1.40;;
6117;SDS011;3089;48.202;11.510;2024-02-16T13:14:32;4.30;;;1.30;;
6117;SDS011;3089;48.202;11.510;2024-02-16T13:17:00;5.80;;;1.30;;
6117;SDS011;3089;48.202;11.510;2024-02-16T13:19:27;3.00;;;1.30;;
6117;SDS011;3089;48.202;11.510;2024-02-16T13:21:57;3.63;;;1.57;;
6117;SDS011;3089;48.202;11.510;2024-02-16T13:24:25;4.60;;;1.70;;
6117;SDS011;3089;48.202;11.510;2024-02-16T13:26:53;3.90;;;1.50;;
6117;SDS011;3089;48.202;11.510;2024-02-16T13:29:22;6.50;;;1.90;;
6117;SDS011;3089;48.202;11.510;2024-02-16T13:31:50;4.10;;;1.30;;
6117;SDS011;3089;48.202;11.510;2024-02-16T13:34:18;6.70;;;1.57;;
6117;SDS011;3089;48.202;11.510;2024-02-16T13:36:47;5.17;;;1.63;;
6117;SDS011;3089;48.202;11.510;2024-02-16T13:39:16;3.57;;;1.50;;
6117;SDS011;3089;48.202;11.510;2024-02-16T13:41:45;5.37;;;1.20;;
6117;SDS011;3089;48.202;11.510;2024-02-16T13:44:14;3.07;;;1.30;;
6117;SDS011;3089;48.202;11.510;2024-02-16T13:46:42;5.53;;;2.30;;
6117;SDS011;3089;48.202;11.510;2024-02-16T13:49:13;8.13;;;1.93;;
6117;SDS011;3089;48.202;11.510;2024-02-16T13:51:41;3.97;;;1.50;;
6117;SDS011;3089;48.202;11.510;2024-02-16T13:54:09;3.90;;;1.70;;
6117;SDS011;3089;48.202;11.510;2024-02-16T13:56:39;3.07;;;1.30;;
6117;SDS011;3089;48.202;11.510;2024-02-16T13:59:07;4.83;;;1.63;;
6117;SDS011;3089;48.202;11.510;2024-02-16T14:01:35;3.00;;;1.47;;
6117;SDS011;3089;48.202;11.510;2024-02-16T14:04:03;9.43;;;1.87;;
6117;SDS011;3089;48.202;11.510;2024-02-16T14:06:32;4.47;;;1.23;;
6117;SDS011;3089;48.202;11.510;2024-02-16T14:09:01;4.10;;;1.40;;
6117;SDS011;3089;48.202;11.510;2024-02-16T14:11:46;8.63;;;1.67;;
6117;SDS011;3089;48.202;11.510;2024-02-16T14:14:14;4.20;;;1.50;;
6117;SDS011;3089;48.202;11.510;2024-02-16T14:16:58;13.33;;;1.93;;
6117;SDS011;3089;48.202;11.510;2024-02-16T14:19:26;3.67;;;1.30;;
6117;SDS011;3089;48.202;11.510;2024-02-16T14:21:54;6.00;;;1.70;;
6117;SDS011;3089;48.202;11.510;2024-02-16T14:24:22;4.93;;;1.83;;
6117;SDS011;3089;48.202;11.510;2024-02-16T14:26:51;4.93;;;1.30;;
6117;SDS011;3089;48.202;11.510;2024-02-16T14:29:20;6.40;;;1.93;;
6117;SDS011;3089;48.202;11.510;2024-02-16T14:31:48;3.63;;;1.47;;
6117;SDS011;3089;48.202;11.510;2024-02-16T14:34:16;5.53;;;1.40;;
6117;SDS011;3089;48.202;11.510;2024-02-16T14:36:44;5.60;;;2.30;;
6117;SDS011;3089;48.202;11.510;2024-02-16T14:39:13;7.33;;;1.60;;
6117;SDS011;3089;48.202;11.510;2024-02-16T14:41:42;3.80;;;1.70;;
6117;SDS011;3089;48.202;11.510;2024-02-16T14:44:12;5.27;;;1.60;;
6117;SDS011;3089;48.202;11.510;2024-02-16T14:46:40;3.80;;;1.60;;
6117;SDS011;3089;48.202;11.510;2024-02-16T14:49:08;14.50;;;1.70;;
6117;SDS011;3089;48.202;11.510;2024-02-16T14:51:39;14.30;;;1.50;;
6117;SDS011;3089;48.202;11.510;2024-02-16T14:54:08;6.53;;;1.70;;
6117;SDS011;3089;48.202;11.510;2024-02-16T14:56:36;4.53;;;1.77;;
6117;SDS011;3089;48.202;11.510;2024-02-16T14:59:04;5.63;;;1.90;;
6117;SDS011;3089;48.202;11.510;2024-02-16T15:01:33;4.97;;;1.40;;
6117;SDS011;3089;48.202;11.510;2024-02-16T15:04:01;5.60;;;1.60;;
6117;SDS011;3089;48.202;11.510;2024-02-16T15:06:30;4.13;;;1.60;;
6117;SDS011;3089;48.202;11.510;2024-02-16T15:08:59;4.77;;;1.60;;
6117;SDS011;3089;48.202;11.510;2024-02-16T15:11:29;4.33;;;1.70;;